sensor_id;sensor_type;location;lat;lon;timestamp;P1;durP1;ratioP1;P2;durP2;ratioP2
12976;SDS011;6553;48.412;9.514;2024-02-26T00:01:43;1.42;;;1.33;;
12976;SDS011;6553;48.412;9.514;2024-02-26T00:04:09;1.35;;;1.25;;
12976;SDS011;6553;48.412;9.514;2024-02-26T00:06:35;1.30;;;1.20;;
12976;SDS011;6553;48.412;9.514;2024-02-26T00:09:01;1.08;;;0.90;;
12976;SDS011;6553;48.412;9.514;2024-02-26T00:11:30;1.40;;;1.30;;
12976;SDS011;6553;48.412;9.514;2024-02-26T00:13:56;1.30;;;1.20;;
12976;SDS011;6553;48.412;9.514;2024-02-26T00:16:23;1.27;;;1.20;;
12976;SDS011;6553;48.412;9.514;2024-02-26T00:18:49;1.13;;;1.10;;
12976;SDS011;6553;48.412;9.514;2024-02-26T00:21:15;1.45;;;1.20;;
12976;SDS011;6553;48.412;9.514;2024-02-26T00:23:41;1.20;;;1.10;;
12976;SDS011;6553;48.412;9.514;2024-02-26T00:26:06;1.20;;;1.10;;
12976;SDS011;6553;48.412;9.514;2024-02-26T00:28:33;0.90;;;0.90;;
12976;SDS011;6553;48.412;9.514;2024-02-26T00:30:59;1.15;;;1.15;;
12976;SDS011;6553;48.412;9.514;2024-02-26T00:33:24;1.35;;;1.25;;
12976;SDS011;6553;48.412;9.514;2024-02-26T00:35:50;1.33;;;1.23;;
12976;SDS011;6553;48.412;9.514;2024-02-26T00:38:16;1.40;;;1.30;;
12976;SDS011;6553;48.412;9.514;2024-02-26T00:40:42;1.25;;;1.20;;
12976;SDS011;6553;48.412;9.514;2024-02-26T00:43:08;1.33;;;1.13;;
12976;SDS011;6553;48.412;9.514;2024-02-26T00:45:33;1.08;;;1.02;;
12976;SDS011;6553;48.412;9.514;2024-02-26T00:47:59;1.20;;;1.10;;
12976;SDS011;6553;48.412;9.514;2024-02-26T00:50:29;1.17;;;1.17;;
12976;SDS011;6553;48.412;9.514;2024-02-26T00:52:59;1.33;;;1.15;;
12976;SDS011;6553;48.412;9.514;2024-02-26T00:55:26;1.33;;;1.10;;
12976;SDS011;6553;48.412;9.514;2024-02-26T00:57:52;1.38;;;1.27;;
12976;SDS011;6553;48.412;9.514;2024-02-26T01:00:18;1.15;;;1.00;;
12976;SDS011;6553;48.412;9.514;2024-02-26T01:02:44;1.33;;;1.23;;
12976;SDS011;6553;48.412;9.514;2024-02-26T01:05:13;0.80;;;0.80;;
12976;SDS011;6553;48.412;9.514;2024-02-26T01:07:41;1.08;;;0.98;;
12976;SDS011;6553;48.412;9.514;2024-02-26T01:10:07;1.05;;;1.05;;
12976;SDS011;6553;48.412;9.514;2024-02-26T01:12:34;1.17;;;1.10;;
12976;SDS011;6553;48.412;9.514;2024-02-26T01:15:03;1.20;;;1.00;;
12976;SDS011;6553;48.412;9.514;2024-02-26T01:17:29;1.48;;;1.38;;
12976;SDS011;6553;48.412;9.514;2024-02-26T01:19:55;1.52;;;1.42;;
12976;SDS011;6553;48.412;9.514;2024-02-26T01:22:21;1.30;;;1.20;;
12976;SDS011;6553;48.412;9.514;2024-02-26T01:24:47;1.30;;;1.20;;
12976;SDS011;6553;48.412;9.514;2024-02-26T01:27:13;1.40;;;1.30;;
12976;SDS011;6553;48.412;9.514;2024-02-26T01:29:40;1.48;;;1.38;;
12976;SDS011;6553;48.412;9.514;2024-02-26T01:32:07;1.17;;;0.98;;
12976;SDS011;6553;48.412;9.514;2024-02-26T01:34:33;1.02;;;1.02;;
12976;SDS011;6553;48.412;9.514;2024-02-26T01:36:59;1.35;;;1.10;;
12976;SDS011;6553;48.412;9.514;2024-02-26T01:39:25;1.00;;;0.90;;
12976;SDS011;6553;48.412;9.514;2024-02-26T01:41:52;1.40;;;1.30;;
12976;SDS011;6553;48.412;9.514;2024-02-26T01:44:18;0.90;;;0.90;;
12976;SDS011;6553;48.412;9.514;2024-02-26T01:46:44;1.27;;;1.17;;
12976;SDS011;6553;48.412;9.514;2024-02-26T01:49:11;1.20;;;1.10;;
12976;SDS011;6553;48.412;9.514;2024-02-26T01:51:38;1.40;;;1.30;;
12976;SDS011;6553;48.412;9.514;2024-02-26T01:54:08;1.20;;;1.10;;
12976;SDS011;6553;48.412;9.514;2024-02-26T01:56:34;1.10;;;1.10;;
12976;SDS011;6553;48.412;9.514;2024-02-26T01:59:02;1.40;;;1.30;;
12976;SDS011;6553;48.412;9.514;2024-02-26T02:01:31;1.05;;;1.00;;
12976;SDS011;6553;48.412;9.514;2024-02-26T02:03:59;1.38;;;1.20;;
12976;SDS011;6553;48.412;9.514;2024-02-26T02:06:26;1.08;;;1.00;;
12976;SDS011;6553;48.412;9.514;2024-02-26T02:08:55;1.20;;;1.10;;
12976;SDS011;6553;48.412;9.514;2024-02-26T02:11:21;1.50;;;1.20;;
12976;SDS011;6553;48.412;9.514;2024-02-26T02:13:47;1.35;;;1.25;;
12976;SDS011;6553;48.412;9.514;2024-02-26T02:16:13;1.10;;;1.00;;
12976;SDS011;6553;48.412;9.514;2024-02-26T02:18:39;1.27;;;1.17;;
12976;SDS011;6553;48.412;9.514;2024-02-26T02:21:05;1.35;;;1.25;;
12976;SDS011;6553;48.412;9.514;2024-02-26T02:23:30;0.90;;;0.90;;
12976;SDS011;6553;48.412;9.514;2024-02-26T02:25:57;0.90;;;0.90;;
12976;SDS011;6553;48.412;9.514;2024-02-26T02:28:25;1.27;;;1.17;;
12976;SDS011;6553;48.412;9.514;2024-02-26T02:30:52;1.33;;;1.23;;
12976;SDS011;6553;48.412;9.514;2024-02-26T02:33:19;1.10;;;1.10;;
12976;SDS011;6553;48.412;9.514;2024-02-26T02:35:46;1.73;;;0.98;;
12976;SDS011;6553;48.412;9.514;2024-02-26T02:38:11;1.10;;;1.10;;
12976;SDS011;6553;48.412;9.514;2024-02-26T02:40:37;0.98;;;0.90;;
12976;SDS011;6553;48.412;9.514;2024-02-26T02:43:03;1.00;;;1.00;;
12976;SDS011;6553;48.412;9.514;2024-02-26T02:45:29;1.00;;;1.00;;
12976;SDS011;6553;48.412;9.514;2024-02-26T02:47:55;1.33;;;1.23;;
12976;SDS011;6553;48.412;9.514;2024-02-26T02:50:21;1.10;;;0.93;;
12976;SDS011;6553;48.412;9.514;2024-02-26T02:52:47;1.10;;;1.00;;
12976;SDS011;6553;48.412;9.514;2024-02-26T02:55:15;1.10;;;1.00;;
12976;SDS011;6553;48.412;9.514;2024-02-26T02:57:41;1.40;;;1.25;;
12976;SDS011;6553;48.412;9.514;2024-02-26T03:00:11;0.80;;;0.80;;
12976;SDS011;6553;48.412;9.514;2024-02-26T03:02:37;1.30;;;1.20;;
12976;SDS011;6553;48.412;9.514;2024-02-26T03:05:04;1.30;;;1.20;;
12976;SDS011;6553;48.412;9.514;2024-02-26T03:07:30;0.90;;;0.90;;
12976;SDS011;6553;48.412;9.514;2024-02-26T03:09:56;1.20;;;1.10;;
12976;SDS011;6553;48.412;9.514;2024-02-26T03:12:22;1.30;;;1.20;;
12976;SDS011;6553;48.412;9.514;2024-02-26T03:14:48;0.93;;;0.93;;
12976;SDS011;6553;48.412;9.514;2024-02-26T03:17:14;1.15;;;1.10;;
12976;SDS011;6553;48.412;9.514;2024-02-26T03:19:39;0.93;;;0.90;;
12976;SDS011;6553;48.412;9.514;2024-02-26T03:22:05;1.33;;;1.20;;
12976;SDS011;6553;48.412;9.514;2024-02-26T03:24:31;1.27;;;1.17;;
12976;SDS011;6553;48.412;9.514;2024-02-26T03:26:57;1.00;;;0.90;;
12976;SDS011;6553;48.412;9.514;2024-02-26T03:29:23;0.82;;;0.82;;
12976;SDS011;6553;48.412;9.514;2024-02-26T03:31:49;1.05;;;1.00;;
12976;SDS011;6553;48.412;9.514;2024-02-26T03:34:14;1.15;;;1.05;;
12976;SDS011;6553;48.412;9.514;2024-02-26T03:36:40;0.90;;;0.90;;
12976;SDS011;6553;48.412;9.514;2024-02-26T03:39:07;1.17;;;1.17;;
12976;SDS011;6553;48.412;9.514;2024-02-26T03:41:33;1.00;;;1.00;;
12976;SDS011;6553;48.412;9.514;2024-02-26T03:44:00;1.00;;;1.00;;
12976;SDS011;6553;48.412;9.514;2024-02-26T03:46:26;1.35;;;0.93;;
12976;SDS011;6553;48.412;9.514;2024-02-26T03:48:52;1.20;;;1.10;;
12976;SDS011;6553;48.412;9.514;2024-02-26T03:51:18;1.00;;;1.00;;
12976;SDS011;6553;48.412;9.514;2024-02-26T03:53:44;2.20;;;1.02;;
12976;SDS011;6553;48.412;9.514;2024-02-26T03:56:13;1.40;;;1.30;;
12976;SDS011;6553;48.412;9.514;2024-02-26T03:58:39;1.20;;;1.10;;
12976;SDS011;6553;48.412;9.514;2024-02-26T04:01:08;1.23;;;1.10;;
12976;SDS011;6553;48.412;9.514;2024-02-26T04:03:34;1.20;;;1.10;;
12976;SDS011;6553;48.412;9.514;2024-02-26T04:06:01;1.35;;;1.25;;
12976;SDS011;6553;48.412;9.514;2024-02-26T04:08:28;1.00;;;1.00;;
12976;SDS011;6553;48.412;9.514;2024-02-26T04:10:53;1.13;;;1.02;;
12976;SDS011;6553;48.412;9.514;2024-02-26T04:13:19;1.00;;;1.00;;
12976;SDS011;6553;48.412;9.514;2024-02-26T04:15:45;1.15;;;1.05;;
12976;SDS011;6553;48.412;9.514;2024-02-26T04:18:12;1.13;;;1.02;;
12976;SDS011;6553;48.412;9.514;2024-02-26T04:20:39;1.35;;;1.02;;
12976;SDS011;6553;48.412;9.514;2024-02-26T04:23:07;1.10;;;1.00;;
12976;SDS011;6553;48.412;9.514;2024-02-26T04:25:32;0.80;;;0.80;;
12976;SDS011;6553;48.412;9.514;2024-02-26T04:27:58;1.13;;;0.90;;
12976;SDS011;6553;48.412;9.514;2024-02-26T04:30:24;1.05;;;1.05;;
12976;SDS011;6553;48.412;9.514;2024-02-26T04:32:50;0.90;;;0.90;;
12976;SDS011;6553;48.412;9.514;2024-02-26T04:35:16;1.20;;;1.10;;
12976;SDS011;6553;48.412;9.514;2024-02-26T04:37:42;0.90;;;0.90;;
12976;SDS011;6553;48.412;9.514;2024-02-26T04:40:08;1.00;;;0.90;;
12976;SDS011;6553;48.412;9.514;2024-02-26T04:42:34;1.20;;;1.10;;
12976;SDS011;6553;48.412;9.514;2024-02-26T04:44:59;1.00;;;1.00;;
12976;SDS011;6553;48.412;9.514;2024-02-26T04:47:25;1.15;;;1.05;;
12976;SDS011;6553;48.412;9.514;2024-02-26T04:49:51;1.30;;;1.08;;
12976;SDS011;6553;48.412;9.514;2024-02-26T04:52:17;1.48;;;1.38;;
12976;SDS011;6553;48.412;9.514;2024-02-26T04:54:44;1.00;;;1.00;;
12976;SDS011;6553;48.412;9.514;2024-02-26T04:57:09;1.10;;;1.00;;
12976;SDS011;6553;48.412;9.514;2024-02-26T04:59:35;1.30;;;1.20;;
12976;SDS011;6553;48.412;9.514;2024-02-26T05:02:01;1.20;;;1.10;;
12976;SDS011;6553;48.412;9.514;2024-02-26T05:04:28;1.13;;;1.02;;
12976;SDS011;6553;48.412;9.514;2024-02-26T05:06:54;1.30;;;1.20;;
12976;SDS011;6553;48.412;9.514;2024-02-26T05:09:19;1.23;;;1.13;;
12976;SDS011;6553;48.412;9.514;2024-02-26T05:11:45;1.23;;;1.13;;
12976;SDS011;6553;48.412;9.514;2024-02-26T05:14:11;1.23;;;1.13;;
12976;SDS011;6553;48.412;9.514;2024-02-26T05:16:37;1.10;;;1.00;;
12976;SDS011;6553;48.412;9.514;2024-02-26T05:19:03;1.25;;;1.15;;
12976;SDS011;6553;48.412;9.514;2024-02-26T05:21:28;1.35;;;1.10;;
12976;SDS011;6553;48.412;9.514;2024-02-26T05:23:54;0.80;;;0.80;;
12976;SDS011;6553;48.412;9.514;2024-02-26T05:26:20;0.90;;;0.82;;
12976;SDS011;6553;48.412;9.514;2024-02-26T05:28:47;1.35;;;1.25;;
12976;SDS011;6553;48.412;9.514;2024-02-26T05:31:14;1.10;;;1.00;;
12976;SDS011;6553;48.412;9.514;2024-02-26T05:33:40;1.02;;;1.00;;
12976;SDS011;6553;48.412;9.514;2024-02-26T05:36:06;1.00;;;0.90;;
12976;SDS011;6553;48.412;9.514;2024-02-26T05:38:32;1.13;;;1.00;;
12976;SDS011;6553;48.412;9.514;2024-02-26T05:40:58;1.40;;;1.30;;
12976;SDS011;6553;48.412;9.514;2024-02-26T05:43:27;1.30;;;1.20;;
12976;SDS011;6553;48.412;9.514;2024-02-26T05:45:53;1.40;;;1.30;;
12976;SDS011;6553;48.412;9.514;2024-02-26T05:48:19;1.40;;;1.30;;
12976;SDS011;6553;48.412;9.514;2024-02-26T05:50:45;1.38;;;1.27;;
12976;SDS011;6553;48.412;9.514;2024-02-26T05:53:12;1.48;;;1.38;;
12976;SDS011;6553;48.412;9.514;2024-02-26T05:55:38;1.25;;;1.15;;
12976;SDS011;6553;48.412;9.514;2024-02-26T05:58:03;1.15;;;1.10;;
12976;SDS011;6553;48.412;9.514;2024-02-26T06:00:30;1.40;;;1.08;;
12976;SDS011;6553;48.412;9.514;2024-02-26T06:02:56;1.30;;;1.20;;
12976;SDS011;6553;48.412;9.514;2024-02-26T06:05:22;1.23;;;1.13;;
12976;SDS011;6553;48.412;9.514;2024-02-26T06:07:48;1.50;;;1.40;;
12976;SDS011;6553;48.412;9.514;2024-02-26T06:10:14;2.20;;;1.58;;
12976;SDS011;6553;48.412;9.514;2024-02-26T06:12:40;1.92;;;1.83;;
12976;SDS011;6553;48.412;9.514;2024-02-26T06:15:06;1.70;;;1.60;;
12976;SDS011;6553;48.412;9.514;2024-02-26T06:17:32;1.80;;;1.70;;
12976;SDS011;6553;48.412;9.514;2024-02-26T06:19:59;1.70;;;1.60;;
12976;SDS011;6553;48.412;9.514;2024-02-26T06:22:25;1.70;;;1.60;;
12976;SDS011;6553;48.412;9.514;2024-02-26T06:24:51;1.67;;;1.58;;
12976;SDS011;6553;48.412;9.514;2024-02-26T06:27:17;1.90;;;1.80;;
12976;SDS011;6553;48.412;9.514;2024-02-26T06:29:43;2.03;;;1.90;;
12976;SDS011;6553;48.412;9.514;2024-02-26T06:32:08;2.15;;;1.98;;
12976;SDS011;6553;48.412;9.514;2024-02-26T06:34:34;2.30;;;1.95;;
12976;SDS011;6553;48.412;9.514;2024-02-26T06:37:00;2.17;;;1.92;;
12976;SDS011;6553;48.412;9.514;2024-02-26T06:39:26;1.75;;;1.65;;
12976;SDS011;6553;48.412;9.514;2024-02-26T06:41:52;2.00;;;1.80;;
12976;SDS011;6553;48.412;9.514;2024-02-26T06:44:25;1.90;;;1.75;;
12976;SDS011;6553;48.412;9.514;2024-02-26T06:46:51;1.90;;;1.80;;
12976;SDS011;6553;48.412;9.514;2024-02-26T06:49:17;2.47;;;2.00;;
12976;SDS011;6553;48.412;9.514;2024-02-26T06:51:43;1.70;;;1.60;;
12976;SDS011;6553;48.412;9.514;2024-02-26T06:54:09;2.00;;;1.90;;
12976;SDS011;6553;48.412;9.514;2024-02-26T06:56:34;1.90;;;1.80;;
12976;SDS011;6553;48.412;9.514;2024-02-26T06:59:00;2.15;;;1.98;;
12976;SDS011;6553;48.412;9.514;2024-02-26T07:01:26;2.03;;;1.88;;
12976;SDS011;6553;48.412;9.514;2024-02-26T07:03:52;2.00;;;1.90;;
12976;SDS011;6553;48.412;9.514;2024-02-26T07:06:17;2.50;;;2.30;;
12976;SDS011;6553;48.412;9.514;2024-02-26T07:08:43;2.28;;;2.08;;
12976;SDS011;6553;48.412;9.514;2024-02-26T07:11:10;2.05;;;1.92;;
12976;SDS011;6553;48.412;9.514;2024-02-26T07:13:36;2.25;;;2.05;;
12976;SDS011;6553;48.412;9.514;2024-02-26T07:16:01;2.45;;;2.25;;
12976;SDS011;6553;48.412;9.514;2024-02-26T07:18:28;2.10;;;1.90;;
12976;SDS011;6553;48.412;9.514;2024-02-26T07:20:54;2.10;;;1.90;;
12976;SDS011;6553;48.412;9.514;2024-02-26T07:23:20;2.28;;;2.10;;
12976;SDS011;6553;48.412;9.514;2024-02-26T07:25:46;2.50;;;2.30;;
12976;SDS011;6553;48.412;9.514;2024-02-26T07:28:14;2.17;;;1.90;;
12976;SDS011;6553;48.412;9.514;2024-02-26T07:30:39;2.70;;;2.25;;
12976;SDS011;6553;48.412;9.514;2024-02-26T07:33:05;2.30;;;2.10;;
12976;SDS011;6553;48.412;9.514;2024-02-26T07:35:32;2.95;;;2.25;;
12976;SDS011;6553;48.412;9.514;2024-02-26T07:37:58;2.10;;;1.90;;
12976;SDS011;6553;48.412;9.514;2024-02-26T07:40:24;2.85;;;2.63;;
12976;SDS011;6553;48.412;9.514;2024-02-26T07:42:50;3.22;;;2.40;;
12976;SDS011;6553;48.412;9.514;2024-02-26T07:45:16;2.30;;;2.10;;
12976;SDS011;6553;48.412;9.514;2024-02-26T07:47:44;2.35;;;2.10;;
12976;SDS011;6553;48.412;9.514;2024-02-26T07:50:11;2.65;;;2.45;;
12976;SDS011;6553;48.412;9.514;2024-02-26T07:52:37;2.58;;;2.38;;
12976;SDS011;6553;48.412;9.514;2024-02-26T07:55:04;2.40;;;2.20;;
12976;SDS011;6553;48.412;9.514;2024-02-26T07:57:32;2.55;;;2.35;;
12976;SDS011;6553;48.412;9.514;2024-02-26T07:59:59;2.40;;;2.20;;
12976;SDS011;6553;48.412;9.514;2024-02-26T08:02:25;2.92;;;2.28;;
12976;SDS011;6553;48.412;9.514;2024-02-26T08:04:50;2.40;;;2.20;;
12976;SDS011;6553;48.412;9.514;2024-02-26T08:07:16;2.30;;;2.10;;
12976;SDS011;6553;48.412;9.514;2024-02-26T08:09:42;2.72;;;2.38;;
12976;SDS011;6553;48.412;9.514;2024-02-26T08:12:08;2.40;;;2.08;;
12976;SDS011;6553;48.412;9.514;2024-02-26T08:14:34;2.58;;;2.38;;
12976;SDS011;6553;48.412;9.514;2024-02-26T08:16:59;2.53;;;2.33;;
12976;SDS011;6553;48.412;9.514;2024-02-26T08:19:26;2.65;;;2.45;;
12976;SDS011;6553;48.412;9.514;2024-02-26T08:21:52;2.63;;;2.42;;
12976;SDS011;6553;48.412;9.514;2024-02-26T08:24:18;2.42;;;2.08;;
12976;SDS011;6553;48.412;9.514;2024-02-26T08:26:43;2.78;;;2.58;;
12976;SDS011;6553;48.412;9.514;2024-02-26T08:29:09;2.50;;;2.30;;
12976;SDS011;6553;48.412;9.514;2024-02-26T08:31:35;2.70;;;2.50;;
12976;SDS011;6553;48.412;9.514;2024-02-26T08:34:02;3.00;;;2.42;;
12976;SDS011;6553;48.412;9.514;2024-02-26T08:36:30;3.03;;;2.70;;
12976;SDS011;6553;48.412;9.514;2024-02-26T08:38:58;2.75;;;2.42;;
12976;SDS011;6553;48.412;9.514;2024-02-26T08:41:24;2.55;;;2.35;;
12976;SDS011;6553;48.412;9.514;2024-02-26T08:43:50;2.60;;;2.40;;
12976;SDS011;6553;48.412;9.514;2024-02-26T08:46:15;3.13;;;2.33;;
12976;SDS011;6553;48.412;9.514;2024-02-26T08:48:41;2.33;;;2.13;;
12976;SDS011;6553;48.412;9.514;2024-02-26T08:51:07;3.00;;;2.70;;
12976;SDS011;6553;48.412;9.514;2024-02-26T08:53:35;2.60;;;2.40;;
12976;SDS011;6553;48.412;9.514;2024-02-26T08:56:01;2.67;;;2.47;;
12976;SDS011;6553;48.412;9.514;2024-02-26T08:58:27;2.65;;;2.30;;
12976;SDS011;6553;48.412;9.514;2024-02-26T09:00:54;2.42;;;2.22;;
12976;SDS011;6553;48.412;9.514;2024-02-26T09:03:20;2.95;;;2.67;;
12976;SDS011;6553;48.412;9.514;2024-02-26T09:05:47;2.80;;;2.60;;
12976;SDS011;6553;48.412;9.514;2024-02-26T09:08:13;3.05;;;2.75;;
12976;SDS011;6553;48.412;9.514;2024-02-26T09:10:39;2.72;;;2.15;;
12976;SDS011;6553;48.412;9.514;2024-02-26T09:13:05;2.80;;;2.60;;
12976;SDS011;6553;48.412;9.514;2024-02-26T09:15:31;2.20;;;2.00;;
12976;SDS011;6553;48.412;9.514;2024-02-26T09:17:57;2.80;;;2.40;;
12976;SDS011;6553;48.412;9.514;2024-02-26T09:20:23;2.50;;;2.25;;
12976;SDS011;6553;48.412;9.514;2024-02-26T09:22:49;2.33;;;2.13;;
12976;SDS011;6553;48.412;9.514;2024-02-26T09:25:16;2.65;;;2.28;;
12976;SDS011;6553;48.412;9.514;2024-02-26T09:27:44;2.33;;;2.13;;
12976;SDS011;6553;48.412;9.514;2024-02-26T09:30:13;2.22;;;2.10;;
12976;SDS011;6553;48.412;9.514;2024-02-26T09:32:39;2.20;;;2.05;;
12976;SDS011;6553;48.412;9.514;2024-02-26T09:35:05;2.17;;;1.95;;
12976;SDS011;6553;48.412;9.514;2024-02-26T09:37:32;2.22;;;2.08;;
12976;SDS011;6553;48.412;9.514;2024-02-26T09:39:58;2.33;;;2.13;;
12976;SDS011;6553;48.412;9.514;2024-02-26T09:42:25;2.08;;;1.92;;
12976;SDS011;6553;48.412;9.514;2024-02-26T09:44:55;2.10;;;1.90;;
12976;SDS011;6553;48.412;9.514;2024-02-26T09:47:27;2.47;;;1.95;;
12976;SDS011;6553;48.412;9.514;2024-02-26T09:49:56;2.10;;;2.00;;
12976;SDS011;6553;48.412;9.514;2024-02-26T09:52:25;2.28;;;2.08;;
12976;SDS011;6553;48.412;9.514;2024-02-26T09:54:53;2.20;;;2.00;;
12976;SDS011;6553;48.412;9.514;2024-02-26T09:57:19;2.10;;;1.90;;
12976;SDS011;6553;48.412;9.514;2024-02-26T09:59:44;2.03;;;1.83;;
12976;SDS011;6553;48.412;9.514;2024-02-26T10:02:14;3.55;;;2.33;;
12976;SDS011;6553;48.412;9.514;2024-02-26T10:04:40;1.70;;;1.50;;
12976;SDS011;6553;48.412;9.514;2024-02-26T10:07:12;2.20;;;1.95;;
12976;SDS011;6553;48.412;9.514;2024-02-26T10:09:39;2.28;;;2.08;;
12976;SDS011;6553;48.412;9.514;2024-02-26T10:12:06;1.90;;;1.80;;
12976;SDS011;6553;48.412;9.514;2024-02-26T10:14:35;2.00;;;1.80;;
12976;SDS011;6553;48.412;9.514;2024-02-26T10:17:01;2.08;;;1.80;;
12976;SDS011;6553;48.412;9.514;2024-02-26T10:19:28;1.70;;;1.60;;
12976;SDS011;6553;48.412;9.514;2024-02-26T10:21:59;1.73;;;1.60;;
12976;SDS011;6553;48.412;9.514;2024-02-26T10:24:27;1.63;;;1.52;;
12976;SDS011;6553;48.412;9.514;2024-02-26T10:26:54;2.00;;;1.80;;
12976;SDS011;6553;48.412;9.514;2024-02-26T10:29:21;1.70;;;1.60;;
12976;SDS011;6553;48.412;9.514;2024-02-26T10:31:50;1.40;;;1.30;;
12976;SDS011;6553;48.412;9.514;2024-02-26T10:34:17;1.60;;;1.50;;
12976;SDS011;6553;48.412;9.514;2024-02-26T10:36:43;1.55;;;1.45;;
12976;SDS011;6553;48.412;9.514;2024-02-26T10:39:09;1.75;;;1.65;;
12976;SDS011;6553;48.412;9.514;2024-02-26T10:41:37;1.70;;;1.60;;
12976;SDS011;6553;48.412;9.514;2024-02-26T10:44:05;1.80;;;1.70;;
12976;SDS011;6553;48.412;9.514;2024-02-26T10:46:34;1.50;;;1.40;;
12976;SDS011;6553;48.412;9.514;2024-02-26T10:49:00;2.60;;;1.90;;
12976;SDS011;6553;48.412;9.514;2024-02-26T10:51:27;1.67;;;1.58;;
12976;SDS011;6553;48.412;9.514;2024-02-26T10:53:56;1.50;;;1.40;;
12976;SDS011;6553;48.412;9.514;2024-02-26T10:56:25;1.80;;;1.70;;
12976;SDS011;6553;48.412;9.514;2024-02-26T10:58:57;1.85;;;1.50;;
12976;SDS011;6553;48.412;9.514;2024-02-26T11:01:24;2.20;;;2.00;;
12976;SDS011;6553;48.412;9.514;2024-02-26T11:03:54;1.50;;;1.40;;
12976;SDS011;6553;48.412;9.514;2024-02-26T11:06:21;1.50;;;1.40;;
12976;SDS011;6553;48.412;9.514;2024-02-26T11:08:48;1.60;;;1.50;;
12976;SDS011;6553;48.412;9.514;2024-02-26T11:11:15;1.42;;;1.33;;
12976;SDS011;6553;48.412;9.514;2024-02-26T11:13:47;1.67;;;1.58;;
12976;SDS011;6553;48.412;9.514;2024-02-26T11:16:19;1.90;;;1.50;;
12976;SDS011;6553;48.412;9.514;2024-02-26T11:18:47;1.52;;;1.42;;
12976;SDS011;6553;48.412;9.514;2024-02-26T11:21:17;1.50;;;1.40;;
12976;SDS011;6553;48.412;9.514;2024-02-26T11:23:47;1.48;;;1.38;;
12976;SDS011;6553;48.412;9.514;2024-02-26T11:26:14;1.52;;;1.42;;
12976;SDS011;6553;48.412;9.514;2024-02-26T11:28:42;1.70;;;1.60;;
12976;SDS011;6553;48.412;9.514;2024-02-26T11:31:10;1.40;;;1.30;;
12976;SDS011;6553;48.412;9.514;2024-02-26T11:33:38;1.50;;;1.40;;
12976;SDS011;6553;48.412;9.514;2024-02-26T11:36:08;2.08;;;1.40;;
12976;SDS011;6553;48.412;9.514;2024-02-26T11:38:37;1.50;;;1.40;;
12976;SDS011;6553;48.412;9.514;2024-02-26T11:41:06;1.35;;;1.25;;
12976;SDS011;6553;48.412;9.514;2024-02-26T11:46:29;1.73;;;1.42;;
12976;SDS011;6553;48.412;9.514;2024-02-26T11:51:56;1.23;;;1.15;;
12976;SDS011;6553;48.412;9.514;2024-02-26T12:07:59;1.30;;;1.20;;
12976;SDS011;6553;48.412;9.514;2024-02-26T12:10:32;1.30;;;1.20;;
12976;SDS011;6553;48.412;9.514;2024-02-26T12:13:15;1.48;;;1.30;;
12976;SDS011;6553;48.412;9.514;2024-02-26T12:15:45;1.00;;;1.00;;
12976;SDS011;6553;48.412;9.514;2024-02-26T12:18:24;1.10;;;1.10;;
12976;SDS011;6553;48.412;9.514;2024-02-26T12:23:29;1.40;;;1.30;;
12976;SDS011;6553;48.412;9.514;2024-02-26T12:25:58;1.30;;;1.20;;
12976;SDS011;6553;48.412;9.514;2024-02-26T12:28:28;1.40;;;1.27;;
12976;SDS011;6553;48.412;9.514;2024-02-26T12:30:55;1.25;;;1.15;;
12976;SDS011;6553;48.412;9.514;2024-02-26T12:33:24;1.00;;;1.00;;
12976;SDS011;6553;48.412;9.514;2024-02-26T12:35:51;1.40;;;1.30;;
12976;SDS011;6553;48.412;9.514;2024-02-26T12:38:18;1.38;;;1.27;;
12976;SDS011;6553;48.412;9.514;2024-02-26T12:40:44;1.30;;;1.20;;
12976;SDS011;6553;48.412;9.514;2024-02-26T12:43:10;1.30;;;1.20;;
12976;SDS011;6553;48.412;9.514;2024-02-26T12:45:41;1.30;;;1.20;;
12976;SDS011;6553;48.412;9.514;2024-02-26T12:48:11;1.13;;;1.10;;
12976;SDS011;6553;48.412;9.514;2024-02-26T12:50:38;1.30;;;1.20;;
12976;SDS011;6553;48.412;9.514;2024-02-26T12:53:04;1.40;;;1.05;;
12976;SDS011;6553;48.412;9.514;2024-02-26T12:55:31;1.42;;;1.33;;
12976;SDS011;6553;48.412;9.514;2024-02-26T12:57:59;1.08;;;1.08;;
12976;SDS011;6553;48.412;9.514;2024-02-26T13:00:26;1.42;;;1.33;;
12976;SDS011;6553;48.412;9.514;2024-02-26T13:02:53;1.10;;;1.10;;
12976;SDS011;6553;48.412;9.514;2024-02-26T13:05:20;2.00;;;1.48;;
12976;SDS011;6553;48.412;9.514;2024-02-26T13:07:48;1.30;;;1.20;;
12976;SDS011;6553;48.412;9.514;2024-02-26T13:10:13;1.50;;;1.40;;
12976;SDS011;6553;48.412;9.514;2024-02-26T13:12:46;1.38;;;1.27;;
12976;SDS011;6553;48.412;9.514;2024-02-26T13:15:16;2.13;;;1.33;;
12976;SDS011;6553;48.412;9.514;2024-02-26T13:17:44;1.55;;;1.45;;
12976;SDS011;6553;48.412;9.514;2024-02-26T13:20:11;1.50;;;1.40;;
12976;SDS011;6553;48.412;9.514;2024-02-26T13:22:37;1.83;;;1.05;;
12976;SDS011;6553;48.412;9.514;2024-02-26T13:25:04;2.42;;;1.30;;
12976;SDS011;6553;48.412;9.514;2024-02-26T13:27:32;1.33;;;1.23;;
12976;SDS011;6553;48.412;9.514;2024-02-26T13:30:11;1.55;;;1.33;;
12976;SDS011;6553;48.412;9.514;2024-02-26T13:32:38;1.50;;;1.40;;
12976;SDS011;6553;48.412;9.514;2024-02-26T13:35:09;1.65;;;1.23;;
12976;SDS011;6553;48.412;9.514;2024-02-26T13:37:37;1.55;;;1.30;;
12976;SDS011;6553;48.412;9.514;2024-02-26T13:40:08;4.80;;;1.35;;
12976;SDS011;6553;48.412;9.514;2024-02-26T13:42:39;1.38;;;1.27;;
12976;SDS011;6553;48.412;9.514;2024-02-26T13:45:05;1.88;;;1.38;;
12976;SDS011;6553;48.412;9.514;2024-02-26T13:47:32;2.20;;;1.42;;
12976;SDS011;6553;48.412;9.514;2024-02-26T13:49:58;1.63;;;1.52;;
12976;SDS011;6553;48.412;9.514;2024-02-26T13:52:25;1.92;;;1.30;;
12976;SDS011;6553;48.412;9.514;2024-02-26T13:54:51;1.58;;;1.30;;
12976;SDS011;6553;48.412;9.514;2024-02-26T13:57:17;1.50;;;1.40;;
12976;SDS011;6553;48.412;9.514;2024-02-26T13:59:44;1.60;;;1.50;;
12976;SDS011;6553;48.412;9.514;2024-02-26T14:02:10;1.40;;;1.30;;
12976;SDS011;6553;48.412;9.514;2024-02-26T14:04:36;1.58;;;1.48;;
12976;SDS011;6553;48.412;9.514;2024-02-26T14:07:03;2.55;;;1.40;;
12976;SDS011;6553;48.412;9.514;2024-02-26T14:09:29;1.10;;;1.10;;
12976;SDS011;6553;48.412;9.514;2024-02-26T14:11:57;1.30;;;1.20;;
12976;SDS011;6553;48.412;9.514;2024-02-26T14:14:24;1.52;;;1.40;;
12976;SDS011;6553;48.412;9.514;2024-02-26T14:16:51;1.45;;;1.30;;
12976;SDS011;6553;48.412;9.514;2024-02-26T14:19:16;1.40;;;1.30;;
12976;SDS011;6553;48.412;9.514;2024-02-26T14:21:43;1.92;;;0.93;;
12976;SDS011;6553;48.412;9.514;2024-02-26T14:24:08;1.45;;;1.15;;
12976;SDS011;6553;48.412;9.514;2024-02-26T14:26:34;1.17;;;1.08;;
12976;SDS011;6553;48.412;9.514;2024-02-26T14:29:00;1.52;;;1.42;;
12976;SDS011;6553;48.412;9.514;2024-02-26T14:31:26;1.63;;;1.10;;
12976;SDS011;6553;48.412;9.514;2024-02-26T14:33:52;1.40;;;1.30;;
12976;SDS011;6553;48.412;9.514;2024-02-26T14:36:20;1.95;;;1.23;;
12976;SDS011;6553;48.412;9.514;2024-02-26T14:38:47;2.17;;;1.35;;
12976;SDS011;6553;48.412;9.514;2024-02-26T14:41:13;2.28;;;1.40;;
12976;SDS011;6553;48.412;9.514;2024-02-26T14:43:39;2.20;;;1.25;;
12976;SDS011;6553;48.412;9.514;2024-02-26T14:46:04;1.10;;;1.00;;
12976;SDS011;6553;48.412;9.514;2024-02-26T14:48:30;1.40;;;1.15;;
12976;SDS011;6553;48.412;9.514;2024-02-26T14:50:56;1.65;;;1.10;;
12976;SDS011;6553;48.412;9.514;2024-02-26T14:53:25;1.55;;;1.20;;
12976;SDS011;6553;48.412;9.514;2024-02-26T14:55:51;1.25;;;1.10;;
12976;SDS011;6553;48.412;9.514;2024-02-26T14:58:17;1.42;;;1.33;;
12976;SDS011;6553;48.412;9.514;2024-02-26T15:00:43;1.30;;;1.20;;
12976;SDS011;6553;48.412;9.514;2024-02-26T15:03:09;1.25;;;1.15;;
12976;SDS011;6553;48.412;9.514;2024-02-26T15:05:34;2.25;;;1.42;;
12976;SDS011;6553;48.412;9.514;2024-02-26T15:08:01;1.40;;;1.30;;
12976;SDS011;6553;48.412;9.514;2024-02-26T15:10:27;1.60;;;1.27;;
12976;SDS011;6553;48.412;9.514;2024-02-26T15:12:53;1.67;;;1.25;;
12976;SDS011;6553;48.412;9.514;2024-02-26T15:15:23;1.27;;;1.17;;
12976;SDS011;6553;48.412;9.514;2024-02-26T15:17:49;2.03;;;1.40;;
12976;SDS011;6553;48.412;9.514;2024-02-26T15:20:16;1.75;;;1.48;;